sensor_id;sensor_type;location;lat;lon;timestamp;P1;durP1;ratioP1;P2;durP2;ratioP2
10643;SDS011;5370;50.132;8.626;2022-12-20T00:02:25;57.53;;;32.93;;
10643;SDS011;5370;50.132;8.626;2022-12-20T00:04:50;60.63;;;34.37;;
10643;SDS011;5370;50.132;8.626;2022-12-20T00:07:16;64.90;;;36.20;;
10643;SDS011;5370;50.132;8.626;2022-12-20T00:09:41;54.90;;;32.80;;
10643;SDS011;5370;50.132;8.626;2022-12-20T00:12:07;63.00;;;36.17;;
10643;SDS011;5370;50.132;8.626;2022-12-20T00:14:32;53.13;;;31.57;;
10643;SDS011;5370;50.132;8.626;2022-12-20T00:16:58;51.67;;;32.80;;
10643;SDS011;5370;50.132;8.626;2022-12-20T00:19:24;56.67;;;33.33;;
10643;SDS011;5370;50.132;8.626;2022-12-20T00:21:49;61.37;;;34.80;;
10643;SDS011;5370;50.132;8.626;2022-12-20T00:24:15;60.47;;;34.50;;
10643;SDS011;5370;50.132;8.626;2022-12-20T00:26:40;62.97;;;32.60;;
10643;SDS011;5370;50.132;8.626;2022-12-20T00:29:06;60.80;;;33.67;;
10643;SDS011;5370;50.132;8.626;2022-12-20T00:31:31;57.07;;;34.03;;
10643;SDS011;5370;50.132;8.626;2022-12-20T00:33:57;59.47;;;33.83;;
10643;SDS011;5370;50.132;8.626;2022-12-20T00:36:24;62.13;;;32.37;;
10643;SDS011;5370;50.132;8.626;2022-12-20T00:38:52;56.90;;;32.50;;
10643;SDS011;5370;50.132;8.626;2022-12-20T00:41:20;55.37;;;32.93;;
10643;SDS011;5370;50.132;8.626;2022-12-20T00:43:48;57.10;;;32.23;;
10643;SDS011;5370;50.132;8.626;2022-12-20T00:46:14;62.03;;;34.73;;
10643;SDS011;5370;50.132;8.626;2022-12-20T00:48:40;54.17;;;32.60;;
10643;SDS011;5370;50.132;8.626;2022-12-20T00:51:07;59.80;;;33.83;;
10643;SDS011;5370;50.132;8.626;2022-12-20T00:53:37;52.60;;;31.17;;
10643;SDS011;5370;50.132;8.626;2022-12-20T00:56:03;56.27;;;33.17;;
10643;SDS011;5370;50.132;8.626;2022-12-20T00:58:37;58.00;;;32.57;;
10643;SDS011;5370;50.132;8.626;2022-12-20T01:01:04;52.73;;;31.57;;
10643;SDS011;5370;50.132;8.626;2022-12-20T01:03:38;54.10;;;31.13;;
10643;SDS011;5370;50.132;8.626;2022-12-20T01:06:03;55.07;;;31.67;;
10643;SDS011;5370;50.132;8.626;2022-12-20T01:08:29;49.37;;;31.90;;
10643;SDS011;5370;50.132;8.626;2022-12-20T01:10:59;52.57;;;30.87;;
10643;SDS011;5370;50.132;8.626;2022-12-20T01:13:26;51.40;;;30.77;;
10643;SDS011;5370;50.132;8.626;2022-12-20T01:15:52;58.33;;;32.93;;
10643;SDS011;5370;50.132;8.626;2022-12-20T01:18:18;50.33;;;31.53;;
10643;SDS011;5370;50.132;8.626;2022-12-20T01:20:44;45.50;;;29.53;;
10643;SDS011;5370;50.132;8.626;2022-12-20T01:23:09;58.93;;;33.50;;
10643;SDS011;5370;50.132;8.626;2022-12-20T01:25:35;56.37;;;32.37;;
10643;SDS011;5370;50.132;8.626;2022-12-20T01:28:00;51.57;;;30.83;;
10643;SDS011;5370;50.132;8.626;2022-12-20T01:30:26;54.93;;;32.93;;
10643;SDS011;5370;50.132;8.626;2022-12-20T01:32:51;54.87;;;32.73;;
10643;SDS011;5370;50.132;8.626;2022-12-20T01:35:17;54.87;;;33.30;;
10643;SDS011;5370;50.132;8.626;2022-12-20T01:37:42;57.33;;;32.93;;
10643;SDS011;5370;50.132;8.626;2022-12-20T01:40:08;55.70;;;30.97;;
10643;SDS011;5370;50.132;8.626;2022-12-20T01:42:34;55.80;;;32.70;;
10643;SDS011;5370;50.132;8.626;2022-12-20T01:45:00;52.37;;;30.30;;
10643;SDS011;5370;50.132;8.626;2022-12-20T01:47:29;50.40;;;30.57;;
10643;SDS011;5370;50.132;8.626;2022-12-20T01:49:57;54.67;;;31.30;;
10643;SDS011;5370;50.132;8.626;2022-12-20T01:52:27;56.00;;;31.90;;
10643;SDS011;5370;50.132;8.626;2022-12-20T01:54:59;51.37;;;29.33;;
10643;SDS011;5370;50.132;8.626;2022-12-20T01:57:43;50.33;;;30.53;;
10643;SDS011;5370;50.132;8.626;2022-12-20T02:00:10;52.17;;;30.37;;
10643;SDS011;5370;50.132;8.626;2022-12-20T02:02:36;49.40;;;30.07;;
10643;SDS011;5370;50.132;8.626;2022-12-20T02:05:02;52.37;;;29.57;;
10643;SDS011;5370;50.132;8.626;2022-12-20T02:07:28;53.40;;;31.80;;
10643;SDS011;5370;50.132;8.626;2022-12-20T02:09:55;50.30;;;30.17;;
10643;SDS011;5370;50.132;8.626;2022-12-20T02:12:23;57.47;;;31.23;;
10643;SDS011;5370;50.132;8.626;2022-12-20T02:31:11;56.37;;;32.00;;
10643;SDS011;5370;50.132;8.626;2022-12-20T02:33:41;49.73;;;30.53;;
10643;SDS011;5370;50.132;8.626;2022-12-20T02:36:08;53.00;;;30.00;;
10643;SDS011;5370;50.132;8.626;2022-12-20T02:38:35;54.43;;;30.97;;
10643;SDS011;5370;50.132;8.626;2022-12-20T02:41:04;58.00;;;32.50;;
10643;SDS011;5370;50.132;8.626;2022-12-20T02:43:52;51.50;;;30.00;;
10643;SDS011;5370;50.132;8.626;2022-12-20T02:46:38;46.00;;;29.43;;
10643;SDS011;5370;50.132;8.626;2022-12-20T02:49:07;49.27;;;29.60;;
10643;SDS011;5370;50.132;8.626;2022-12-20T02:51:37;50.77;;;32.03;;
10643;SDS011;5370;50.132;8.626;2022-12-20T02:54:04;49.83;;;29.97;;
10643;SDS011;5370;50.132;8.626;2022-12-20T02:56:31;54.70;;;30.57;;
10643;SDS011;5370;50.132;8.626;2022-12-20T02:59:14;53.33;;;30.27;;
10643;SDS011;5370;50.132;8.626;2022-12-20T03:01:52;51.10;;;29.93;;
10643;SDS011;5370;50.132;8.626;2022-12-20T03:04:20;50.87;;;30.83;;
10643;SDS011;5370;50.132;8.626;2022-12-20T03:06:56;52.30;;;31.73;;
10643;SDS011;5370;50.132;8.626;2022-12-20T03:09:34;56.03;;;31.17;;
10643;SDS011;5370;50.132;8.626;2022-12-20T03:12:02;53.67;;;31.57;;
10643;SDS011;5370;50.132;8.626;2022-12-20T03:14:29;53.00;;;31.37;;
10643;SDS011;5370;50.132;8.626;2022-12-20T03:16:54;54.40;;;32.07;;
10643;SDS011;5370;50.132;8.626;2022-12-20T03:19:20;49.43;;;30.87;;
10643;SDS011;5370;50.132;8.626;2022-12-20T03:21:46;50.30;;;30.50;;
10643;SDS011;5370;50.132;8.626;2022-12-20T03:24:12;52.20;;;30.87;;
10643;SDS011;5370;50.132;8.626;2022-12-20T03:26:39;50.37;;;31.37;;
10643;SDS011;5370;50.132;8.626;2022-12-20T03:29:05;51.23;;;31.03;;
10643;SDS011;5370;50.132;8.626;2022-12-20T03:31:31;50.37;;;30.87;;
10643;SDS011;5370;50.132;8.626;2022-12-20T03:33:56;53.13;;;29.37;;
10643;SDS011;5370;50.132;8.626;2022-12-20T03:36:22;51.77;;;30.97;;
10643;SDS011;5370;50.132;8.626;2022-12-20T03:38:48;50.77;;;31.57;;
10643;SDS011;5370;50.132;8.626;2022-12-20T03:41:15;47.43;;;29.57;;
10643;SDS011;5370;50.132;8.626;2022-12-20T03:43:41;49.63;;;29.30;;
10643;SDS011;5370;50.132;8.626;2022-12-20T03:46:06;50.57;;;31.33;;
10643;SDS011;5370;50.132;8.626;2022-12-20T03:48:32;49.60;;;29.07;;
10643;SDS011;5370;50.132;8.626;2022-12-20T03:50:57;52.40;;;30.53;;
10643;SDS011;5370;50.132;8.626;2022-12-20T03:53:23;48.17;;;29.50;;
10643;SDS011;5370;50.132;8.626;2022-12-20T03:55:48;52.00;;;29.10;;
10643;SDS011;5370;50.132;8.626;2022-12-20T03:58:14;48.17;;;29.70;;
10643;SDS011;5370;50.132;8.626;2022-12-20T04:00:39;47.83;;;29.87;;
10643;SDS011;5370;50.132;8.626;2022-12-20T04:03:05;47.60;;;29.67;;
10643;SDS011;5370;50.132;8.626;2022-12-20T04:05:30;52.37;;;30.70;;
10643;SDS011;5370;50.132;8.626;2022-12-20T04:07:56;50.17;;;29.43;;
10643;SDS011;5370;50.132;8.626;2022-12-20T04:10:21;53.83;;;29.13;;
10643;SDS011;5370;50.132;8.626;2022-12-20T04:12:47;45.13;;;27.60;;
10643;SDS011;5370;50.132;8.626;2022-12-20T04:15:12;45.23;;;28.40;;
10643;SDS011;5370;50.132;8.626;2022-12-20T04:17:38;49.67;;;29.50;;
10643;SDS011;5370;50.132;8.626;2022-12-20T04:20:04;44.27;;;28.47;;
10643;SDS011;5370;50.132;8.626;2022-12-20T04:22:46;46.37;;;28.63;;
10643;SDS011;5370;50.132;8.626;2022-12-20T04:25:12;49.73;;;29.37;;
10643;SDS011;5370;50.132;8.626;2022-12-20T04:27:42;49.53;;;29.60;;
10643;SDS011;5370;50.132;8.626;2022-12-20T04:30:08;54.07;;;28.67;;
10643;SDS011;5370;50.132;8.626;2022-12-20T04:32:35;48.73;;;28.03;;
10643;SDS011;5370;50.132;8.626;2022-12-20T04:35:00;53.83;;;29.47;;
10643;SDS011;5370;50.132;8.626;2022-12-20T04:37:27;46.83;;;27.30;;
10643;SDS011;5370;50.132;8.626;2022-12-20T04:39:54;47.27;;;26.40;;
10643;SDS011;5370;50.132;8.626;2022-12-20T04:42:20;46.67;;;28.20;;
10643;SDS011;5370;50.132;8.626;2022-12-20T04:44:46;41.53;;;26.53;;
10643;SDS011;5370;50.132;8.626;2022-12-20T04:47:11;44.57;;;28.53;;
10643;SDS011;5370;50.132;8.626;2022-12-20T04:49:37;41.37;;;25.67;;
10643;SDS011;5370;50.132;8.626;2022-12-20T04:52:02;47.77;;;27.33;;
10643;SDS011;5370;50.132;8.626;2022-12-20T04:54:47;47.53;;;26.40;;
10643;SDS011;5370;50.132;8.626;2022-12-20T04:57:12;52.00;;;28.87;;
10643;SDS011;5370;50.132;8.626;2022-12-20T04:59:38;51.23;;;26.53;;
10643;SDS011;5370;50.132;8.626;2022-12-20T05:02:04;44.87;;;26.90;;
10643;SDS011;5370;50.132;8.626;2022-12-20T05:04:29;45.53;;;27.83;;
10643;SDS011;5370;50.132;8.626;2022-12-20T05:06:55;40.67;;;25.13;;
10643;SDS011;5370;50.132;8.626;2022-12-20T05:09:20;44.80;;;27.27;;
10643;SDS011;5370;50.132;8.626;2022-12-20T05:11:46;43.30;;;26.13;;
10643;SDS011;5370;50.132;8.626;2022-12-20T05:14:12;44.63;;;27.33;;
10643;SDS011;5370;50.132;8.626;2022-12-20T05:16:37;49.43;;;26.53;;
10643;SDS011;5370;50.132;8.626;2022-12-20T05:19:03;45.70;;;27.40;;
10643;SDS011;5370;50.132;8.626;2022-12-20T05:21:28;45.37;;;27.00;;
10643;SDS011;5370;50.132;8.626;2022-12-20T05:24:13;47.57;;;26.37;;
10643;SDS011;5370;50.132;8.626;2022-12-20T05:26:57;45.13;;;24.87;;
10643;SDS011;5370;50.132;8.626;2022-12-20T05:29:23;46.87;;;27.20;;
10643;SDS011;5370;50.132;8.626;2022-12-20T05:31:49;43.73;;;26.50;;
10643;SDS011;5370;50.132;8.626;2022-12-20T05:34:14;46.80;;;25.97;;
10643;SDS011;5370;50.132;8.626;2022-12-20T05:36:40;42.20;;;26.97;;
10643;SDS011;5370;50.132;8.626;2022-12-20T05:39:06;43.33;;;25.60;;
10643;SDS011;5370;50.132;8.626;2022-12-20T05:41:31;47.00;;;27.50;;
10643;SDS011;5370;50.132;8.626;2022-12-20T05:43:57;46.47;;;26.03;;
10643;SDS011;5370;50.132;8.626;2022-12-20T05:46:23;41.90;;;25.03;;
10643;SDS011;5370;50.132;8.626;2022-12-20T05:48:48;42.37;;;25.37;;
10643;SDS011;5370;50.132;8.626;2022-12-20T05:51:14;46.67;;;27.37;;
10643;SDS011;5370;50.132;8.626;2022-12-20T05:53:39;48.53;;;26.77;;
10643;SDS011;5370;50.132;8.626;2022-12-20T05:56:05;61.57;;;28.97;;
10643;SDS011;5370;50.132;8.626;2022-12-20T05:58:31;56.03;;;28.27;;
10643;SDS011;5370;50.132;8.626;2022-12-20T06:00:58;51.57;;;28.47;;
10643;SDS011;5370;50.132;8.626;2022-12-20T06:03:25;49.83;;;26.73;;
10643;SDS011;5370;50.132;8.626;2022-12-20T06:05:51;55.00;;;28.73;;
10643;SDS011;5370;50.132;8.626;2022-12-20T06:08:16;52.63;;;27.80;;
10643;SDS011;5370;50.132;8.626;2022-12-20T06:10:42;49.97;;;27.73;;
10643;SDS011;5370;50.132;8.626;2022-12-20T06:13:08;49.23;;;29.23;;
10643;SDS011;5370;50.132;8.626;2022-12-20T06:15:34;59.33;;;27.03;;
10643;SDS011;5370;50.132;8.626;2022-12-20T06:18:00;46.67;;;26.97;;
10643;SDS011;5370;50.132;8.626;2022-12-20T06:20:26;53.97;;;27.37;;
10643;SDS011;5370;50.132;8.626;2022-12-20T06:22:52;44.20;;;26.47;;
10643;SDS011;5370;50.132;8.626;2022-12-20T06:25:18;52.10;;;28.63;;
10643;SDS011;5370;50.132;8.626;2022-12-20T06:27:44;45.53;;;27.63;;
10643;SDS011;5370;50.132;8.626;2022-12-20T06:30:10;53.80;;;27.23;;
10643;SDS011;5370;50.132;8.626;2022-12-20T06:32:36;51.13;;;27.33;;
10643;SDS011;5370;50.132;8.626;2022-12-20T06:35:02;47.60;;;27.43;;
10643;SDS011;5370;50.132;8.626;2022-12-20T06:37:28;44.27;;;27.30;;
10643;SDS011;5370;50.132;8.626;2022-12-20T06:39:54;49.53;;;27.03;;
10643;SDS011;5370;50.132;8.626;2022-12-20T06:42:19;51.27;;;26.73;;
10643;SDS011;5370;50.132;8.626;2022-12-20T06:44:45;48.00;;;29.53;;
10643;SDS011;5370;50.132;8.626;2022-12-20T06:47:10;49.90;;;26.13;;
10643;SDS011;5370;50.132;8.626;2022-12-20T06:49:36;46.80;;;28.33;;
10643;SDS011;5370;50.132;8.626;2022-12-20T06:52:01;47.00;;;28.63;;
10643;SDS011;5370;50.132;8.626;2022-12-20T06:54:27;46.13;;;27.37;;
10643;SDS011;5370;50.132;8.626;2022-12-20T06:56:53;42.87;;;26.20;;
10643;SDS011;5370;50.132;8.626;2022-12-20T06:59:18;43.33;;;27.07;;
10643;SDS011;5370;50.132;8.626;2022-12-20T07:01:44;50.03;;;28.47;;
10643;SDS011;5370;50.132;8.626;2022-12-20T07:04:09;49.90;;;28.30;;
10643;SDS011;5370;50.132;8.626;2022-12-20T07:06:35;45.00;;;28.03;;
10643;SDS011;5370;50.132;8.626;2022-12-20T07:09:00;43.43;;;26.13;;
10643;SDS011;5370;50.132;8.626;2022-12-20T07:11:26;49.57;;;29.77;;
10643;SDS011;5370;50.132;8.626;2022-12-20T07:13:55;44.70;;;27.33;;
10643;SDS011;5370;50.132;8.626;2022-12-20T07:16:21;42.17;;;25.77;;
10643;SDS011;5370;50.132;8.626;2022-12-20T07:18:48;40.60;;;25.67;;
10643;SDS011;5370;50.132;8.626;2022-12-20T07:21:14;44.13;;;26.07;;
10643;SDS011;5370;50.132;8.626;2022-12-20T07:23:41;40.67;;;25.47;;
10643;SDS011;5370;50.132;8.626;2022-12-20T07:26:07;48.87;;;25.80;;
10643;SDS011;5370;50.132;8.626;2022-12-20T07:28:34;47.70;;;27.10;;
10643;SDS011;5370;50.132;8.626;2022-12-20T07:31:00;45.30;;;25.83;;
10643;SDS011;5370;50.132;8.626;2022-12-20T07:33:26;50.23;;;27.37;;
10643;SDS011;5370;50.132;8.626;2022-12-20T07:35:58;47.73;;;26.73;;
10643;SDS011;5370;50.132;8.626;2022-12-20T07:38:28;44.50;;;27.30;;
10643;SDS011;5370;50.132;8.626;2022-12-20T07:40:54;43.53;;;26.23;;
10643;SDS011;5370;50.132;8.626;2022-12-20T07:43:19;49.00;;;27.57;;
10643;SDS011;5370;50.132;8.626;2022-12-20T07:45:45;47.30;;;27.10;;
10643;SDS011;5370;50.132;8.626;2022-12-20T07:48:11;43.03;;;26.73;;
10643;SDS011;5370;50.132;8.626;2022-12-20T07:50:38;42.70;;;26.40;;
10643;SDS011;5370;50.132;8.626;2022-12-20T07:53:05;50.17;;;27.33;;
10643;SDS011;5370;50.132;8.626;2022-12-20T07:55:31;46.90;;;27.67;;
10643;SDS011;5370;50.132;8.626;2022-12-20T07:58:00;42.87;;;27.27;;
10643;SDS011;5370;50.132;8.626;2022-12-20T08:00:28;46.53;;;27.33;;
10643;SDS011;5370;50.132;8.626;2022-12-20T08:02:58;54.67;;;27.20;;
10643;SDS011;5370;50.132;8.626;2022-12-20T08:05:28;45.87;;;27.90;;
10643;SDS011;5370;50.132;8.626;2022-12-20T08:07:55;45.50;;;24.53;;
10643;SDS011;5370;50.132;8.626;2022-12-20T08:10:23;46.73;;;27.20;;
10643;SDS011;5370;50.132;8.626;2022-12-20T08:12:48;49.43;;;26.50;;
10643;SDS011;5370;50.132;8.626;2022-12-20T08:15:15;49.20;;;26.93;;
10643;SDS011;5370;50.132;8.626;2022-12-20T08:17:41;53.87;;;27.23;;
10643;SDS011;5370;50.132;8.626;2022-12-20T08:20:07;65.63;;;27.93;;
10643;SDS011;5370;50.132;8.626;2022-12-20T08:22:33;55.97;;;27.97;;
10643;SDS011;5370;50.132;8.626;2022-12-20T08:24:59;47.03;;;27.80;;
10643;SDS011;5370;50.132;8.626;2022-12-20T08:27:24;53.63;;;28.87;;
10643;SDS011;5370;50.132;8.626;2022-12-20T08:29:50;50.77;;;26.13;;
10643;SDS011;5370;50.132;8.626;2022-12-20T08:32:16;44.27;;;27.17;;
10643;SDS011;5370;50.132;8.626;2022-12-20T08:34:41;53.80;;;34.33;;
10643;SDS011;5370;50.132;8.626;2022-12-20T08:37:07;49.97;;;28.50;;
10643;SDS011;5370;50.132;8.626;2022-12-20T08:39:32;46.70;;;27.57;;
10643;SDS011;5370;50.132;8.626;2022-12-20T08:41:58;42.60;;;26.13;;
10643;SDS011;5370;50.132;8.626;2022-12-20T08:44:24;46.37;;;26.83;;
10643;SDS011;5370;50.132;8.626;2022-12-20T08:46:49;41.80;;;27.50;;
10643;SDS011;5370;50.132;8.626;2022-12-20T08:49:15;45.17;;;26.97;;
10643;SDS011;5370;50.132;8.626;2022-12-20T08:51:40;48.63;;;28.43;;
10643;SDS011;5370;50.132;8.626;2022-12-20T08:54:06;42.47;;;25.90;;
10643;SDS011;5370;50.132;8.626;2022-12-20T08:56:32;47.33;;;25.67;;
10643;SDS011;5370;50.132;8.626;2022-12-20T08:58:57;44.67;;;27.77;;
10643;SDS011;5370;50.132;8.626;2022-12-20T09:01:23;43.57;;;28.70;;
10643;SDS011;5370;50.132;8.626;2022-12-20T09:03:50;52.13;;;30.57;;
10643;SDS011;5370;50.132;8.626;2022-12-20T09:06:17;44.80;;;29.70;;
10643;SDS011;5370;50.132;8.626;2022-12-20T09:08:44;42.20;;;26.47;;
10643;SDS011;5370;50.132;8.626;2022-12-20T09:13:37;44.17;;;25.13;;
10643;SDS011;5370;50.132;8.626;2022-12-20T09:16:04;44.67;;;25.70;;
10643;SDS011;5370;50.132;8.626;2022-12-20T09:18:31;43.17;;;26.20;;
10643;SDS011;5370;50.132;8.626;2022-12-20T09:21:00;36.40;;;23.97;;
10643;SDS011;5370;50.132;8.626;2022-12-20T09:23:27;45.27;;;25.77;;
10643;SDS011;5370;50.132;8.626;2022-12-20T09:25:54;44.43;;;24.53;;
10643;SDS011;5370;50.132;8.626;2022-12-20T09:28:21;45.10;;;26.73;;
10643;SDS011;5370;50.132;8.626;2022-12-20T09:30:47;40.63;;;24.27;;
10643;SDS011;5370;50.132;8.626;2022-12-20T09:33:12;39.03;;;24.27;;
10643;SDS011;5370;50.132;8.626;2022-12-20T09:35:44;37.67;;;24.43;;
10643;SDS011;5370;50.132;8.626;2022-12-20T09:38:11;38.40;;;23.03;;
10643;SDS011;5370;50.132;8.626;2022-12-20T09:40:37;37.33;;;23.73;;
10643;SDS011;5370;50.132;8.626;2022-12-20T09:43:03;39.57;;;26.50;;
10643;SDS011;5370;50.132;8.626;2022-12-20T09:45:30;46.20;;;24.00;;
10643;SDS011;5370;50.132;8.626;2022-12-20T09:47:59;37.53;;;25.03;;
10643;SDS011;5370;50.132;8.626;2022-12-20T09:50:30;47.60;;;25.90;;
10643;SDS011;5370;50.132;8.626;2022-12-20T09:56:02;47.50;;;24.97;;
10643;SDS011;5370;50.132;8.626;2022-12-20T09:58:41;46.27;;;24.80;;
10643;SDS011;5370;50.132;8.626;2022-12-20T10:01:23;37.40;;;22.37;;
10643;SDS011;5370;50.132;8.626;2022-12-20T10:03:50;41.70;;;26.27;;
10643;SDS011;5370;50.132;8.626;2022-12-20T10:09:02;45.80;;;24.23;;
10643;SDS011;5370;50.132;8.626;2022-12-20T10:26:09;40.40;;;24.73;;
10643;SDS011;5370;50.132;8.626;2022-12-20T10:28:36;41.13;;;25.80;;
10643;SDS011;5370;50.132;8.626;2022-12-20T10:31:04;39.10;;;25.20;;
10643;SDS011;5370;50.132;8.626;2022-12-20T10:33:32;38.97;;;25.00;;
10643;SDS011;5370;50.132;8.626;2022-12-20T10:38:45;43.50;;;28.63;;
10643;SDS011;5370;50.132;8.626;2022-12-20T10:41:16;52.43;;;30.60;;
10643;SDS011;5370;50.132;8.626;2022-12-20T10:43:45;52.20;;;29.20;;
10643;SDS011;5370;50.132;8.626;2022-12-20T10:46:15;51.57;;;29.17;;
10643;SDS011;5370;50.132;8.626;2022-12-20T10:48:42;42.03;;;25.93;;
10643;SDS011;5370;50.132;8.626;2022-12-20T10:53:36;38.00;;;23.30;;
10643;SDS011;5370;50.132;8.626;2022-12-20T10:58:57;42.97;;;25.17;;
10643;SDS011;5370;50.132;8.626;2022-12-20T11:01:25;36.53;;;23.10;;
10643;SDS011;5370;50.132;8.626;2022-12-20T11:04:00;43.60;;;27.37;;
10643;SDS011;5370;50.132;8.626;2022-12-20T11:14:42;34.27;;;24.33;;
10643;SDS011;5370;50.132;8.626;2022-12-20T11:25:35;44.37;;;26.63;;
10643;SDS011;5370;50.132;8.626;2022-12-20T11:31:35;35.43;;;23.23;;
10643;SDS011;5370;50.132;8.626;2022-12-20T11:41:58;40.93;;;25.33;;
10643;SDS011;5370;50.132;8.626;2022-12-20T11:47:41;40.40;;;26.13;;
10643;SDS011;5370;50.132;8.626;2022-12-20T11:50:58;32.80;;;22.57;;
10643;SDS011;5370;50.132;8.626;2022-12-20T11:52:57;39.73;;;24.33;;
10643;SDS011;5370;50.132;8.626;2022-12-20T11:55:32;45.67;;;26.83;;
10643;SDS011;5370;50.132;8.626;2022-12-20T11:58:05;35.80;;;24.53;;
10643;SDS011;5370;50.132;8.626;2022-12-20T12:00:40;40.20;;;24.40;;
10643;SDS011;5370;50.132;8.626;2022-12-20T12:03:25;39.93;;;25.33;;
10643;SDS011;5370;50.132;8.626;2022-12-20T12:06:01;37.73;;;23.83;;
10643;SDS011;5370;50.132;8.626;2022-12-20T12:08:48;43.10;;;25.93;;
10643;SDS011;5370;50.132;8.626;2022-12-20T12:11:23;43.20;;;26.13;;
10643;SDS011;5370;50.132;8.626;2022-12-20T12:13:51;39.13;;;24.47;;
10643;SDS011;5370;50.132;8.626;2022-12-20T12:16:20;38.53;;;25.23;;
10643;SDS011;5370;50.132;8.626;2022-12-20T12:18:51;37.07;;;24.57;;
10643;SDS011;5370;50.132;8.626;2022-12-20T12:26:36;37.63;;;25.17;;
10643;SDS011;5370;50.132;8.626;2022-12-20T12:46:00;37.27;;;24.40;;
10643;SDS011;5370;50.132;8.626;2022-12-20T12:51:03;40.63;;;24.90;;
10643;SDS011;5370;50.132;8.626;2022-12-20T12:53:40;34.57;;;24.07;;
10643;SDS011;5370;50.132;8.626;2022-12-20T13:01:55;38.20;;;24.57;;
10643;SDS011;5370;50.132;8.626;2022-12-20T13:04:58;41.93;;;23.20;;
10643;SDS011;5370;50.132;8.626;2022-12-20T13:15:02;38.77;;;24.33;;
10643;SDS011;5370;50.132;8.626;2022-12-20T13:17:57;33.90;;;23.53;;
10643;SDS011;5370;50.132;8.626;2022-12-20T13:20:24;37.03;;;23.23;;
10643;SDS011;5370;50.132;8.626;2022-12-20T13:25:39;36.53;;;23.50;;
10643;SDS011;5370;50.132;8.626;2022-12-20T13:30:47;38.27;;;23.30;;
10643;SDS011;5370;50.132;8.626;2022-12-20T13:38:37;35.00;;;22.90;;
10643;SDS011;5370;50.132;8.626;2022-12-20T13:43:50;35.23;;;23.67;;
10643;SDS011;5370;50.132;8.626;2022-12-20T13:46:21;36.43;;;22.47;;
10643;SDS011;5370;50.132;8.626;2022-12-20T13:48:51;29.83;;;21.23;;
10643;SDS011;5370;50.132;8.626;2022-12-20T13:51:23;35.10;;;22.47;;
10643;SDS011;5370;50.132;8.626;2022-12-20T13:53:54;35.57;;;23.23;;
10643;SDS011;5370;50.132;8.626;2022-12-20T13:58:51;33.27;;;22.37;;
10643;SDS011;5370;50.132;8.626;2022-12-20T14:01:22;34.00;;;21.73;;
10643;SDS011;5370;50.132;8.626;2022-12-20T14:03:49;35.40;;;22.20;;
10643;SDS011;5370;50.132;8.626;2022-12-20T14:06:18;29.43;;;21.13;;
10643;SDS011;5370;50.132;8.626;2022-12-20T14:08:46;34.63;;;22.00;;
10643;SDS011;5370;50.132;8.626;2022-12-20T14:11:17;32.40;;;22.93;;
10643;SDS011;5370;50.132;8.626;2022-12-20T14:13:53;30.67;;;21.03;;
10643;SDS011;5370;50.132;8.626;2022-12-20T14:16:27;35.30;;;23.23;;
10643;SDS011;5370;50.132;8.626;2022-12-20T14:21:20;37.60;;;23.47;;
10643;SDS011;5370;50.132;8.626;2022-12-20T14:23:47;32.40;;;22.80;;
10643;SDS011;5370;50.132;8.626;2022-12-20T14:26:16;30.23;;;21.93;;
10643;SDS011;5370;50.132;8.626;2022-12-20T14:28:47;32.37;;;23.43;;
10643;SDS011;5370;50.132;8.626;2022-12-20T14:31:28;34.60;;;22.47;;
10643;SDS011;5370;50.132;8.626;2022-12-20T14:36:34;37.17;;;23.30;;
10643;SDS011;5370;50.132;8.626;2022-12-20T14:39:23;36.17;;;23.27;;
10643;SDS011;5370;50.132;8.626;2022-12-20T14:44:31;36.00;;;23.50;;
10643;SDS011;5370;50.132;8.626;2022-12-20T14:46:59;37.93;;;22.87;;
10643;SDS011;5370;50.132;8.626;2022-12-20T14:54:44;40.87;;;24.50;;
10643;SDS011;5370;50.132;8.626;2022-12-20T15:02:41;36.73;;;23.47;;
10643;SDS011;5370;50.132;8.626;2022-12-20T15:08:13;40.27;;;25.50;;
10643;SDS011;5370;50.132;8.626;2022-12-20T15:13:41;38.13;;;24.00;;
10643;SDS011;5370;50.132;8.626;2022-12-20T15:16:12;37.40;;;25.77;;
10643;SDS011;5370;50.132;8.626;2022-12-20T15:18:43;46.33;;;30.37;;
10643;SDS011;5370;50.132;8.626;2022-12-20T15:21:18;56.00;;;35.40;;
10643;SDS011;5370;50.132;8.626;2022-12-20T15:23:52;42.70;;;29.40;;
10643;SDS011;5370;50.132;8.626;2022-12-20T15:26:20;39.37;;;26.50;;
10643;SDS011;5370;50.132;8.626;2022-12-20T15:28:47;43.87;;;28.57;;
10643;SDS011;5370;50.132;8.626;2022-12-20T15:31:14;39.53;;;27.43;;
10643;SDS011;5370;50.132;8.626;2022-12-20T15:33:42;60.70;;;39.03;;
10643;SDS011;5370;50.132;8.626;2022-12-20T15:36:26;43.97;;;30.33;;
10643;SDS011;5370;50.132;8.626;2022-12-20T15:38:55;46.97;;;29.30;;
10643;SDS011;5370;50.132;8.626;2022-12-20T15:41:26;44.47;;;29.70;;
10643;SDS011;5370;50.132;8.626;2022-12-20T15:43:55;45.87;;;28.07;;
10643;SDS011;5370;50.132;8.626;2022-12-20T15:46:23;41.17;;;27.37;;
10643;SDS011;5370;50.132;8.626;2022-12-20T15:48:49;43.70;;;29.27;;
10643;SDS011;5370;50.132;8.626;2022-12-20T15:51:36;37.23;;;27.03;;
10643;SDS011;5370;50.132;8.626;2022-12-20T15:54:05;41.63;;;28.47;;
10643;SDS011;5370;50.132;8.626;2022-12-20T15:56:46;42.67;;;28.47;;
10643;SDS011;5370;50.132;8.626;2022-12-20T15:59:12;45.73;;;29.10;;
10643;SDS011;5370;50.132;8.626;2022-12-20T16:01:38;46.37;;;31.07;;
10643;SDS011;5370;50.132;8.626;2022-12-20T16:04:04;45.10;;;30.67;;
10643;SDS011;5370;50.132;8.626;2022-12-20T16:06:30;47.43;;;29.20;;
10643;SDS011;5370;50.132;8.626;2022-12-20T16:08:56;46.97;;;29.57;;
10643;SDS011;5370;50.132;8.626;2022-12-20T16:11:26;44.70;;;27.80;;
10643;SDS011;5370;50.132;8.626;2022-12-20T16:13:54;51.53;;;27.80;;
10643;SDS011;5370;50.132;8.626;2022-12-20T16:16:23;40.13;;;27.40;;
10643;SDS011;5370;50.132;8.626;2022-12-20T16:18:50;54.03;;;32.23;;
10643;SDS011;5370;50.132;8.626;2022-12-20T16:21:21;48.10;;;28.37;;
10643;SDS011;5370;50.132;8.626;2022-12-20T16:23:50;37.23;;;24.30;;
10643;SDS011;5370;50.132;8.626;2022-12-20T16:26:16;40.00;;;27.70;;
10643;SDS011;5370;50.132;8.626;2022-12-20T16:28:44;45.80;;;28.07;;
10643;SDS011;5370;50.132;8.626;2022-12-20T16:31:15;50.23;;;29.73;;
10643;SDS011;5370;50.132;8.626;2022-12-20T16:33:51;46.10;;;29.00;;
10643;SDS011;5370;50.132;8.626;2022-12-20T16:36:18;49.97;;;30.37;;
10643;SDS011;5370;50.132;8.626;2022-12-20T16:38:44;47.70;;;29.67;;
10643;SDS011;5370;50.132;8.626;2022-12-20T16:41:10;54.83;;;30.90;;
10643;SDS011;5370;50.132;8.626;2022-12-20T16:43:38;46.60;;;29.03;;
10643;SDS011;5370;50.132;8.626;2022-12-20T16:46:03;55.20;;;35.70;;
10643;SDS011;5370;50.132;8.626;2022-12-20T16:48:29;51.40;;;29.87;;
10643;SDS011;5370;50.132;8.626;2022-12-20T16:50:55;52.67;;;31.00;;
10643;SDS011;5370;50.132;8.626;2022-12-20T16:53:21;48.57;;;32.83;;
10643;SDS011;5370;50.132;8.626;2022-12-20T16:55:47;55.33;;;34.23;;
10643;SDS011;5370;50.132;8.626;2022-12-20T16:58:12;61.37;;;33.13;;
10643;SDS011;5370;50.132;8.626;2022-12-20T17:00:38;52.97;;;33.00;;
10643;SDS011;5370;50.132;8.626;2022-12-20T17:03:04;60.37;;;34.07;;
10643;SDS011;5370;50.132;8.626;2022-12-20T17:05:31;65.87;;;38.13;;
10643;SDS011;5370;50.132;8.626;2022-12-20T17:08:01;67.60;;;34.50;;
10643;SDS011;5370;50.132;8.626;2022-12-20T17:10:31;60.97;;;34.40;;
10643;SDS011;5370;50.132;8.626;2022-12-20T17:12:56;53.00;;;31.03;;
10643;SDS011;5370;50.132;8.626;2022-12-20T17:15:23;67.23;;;36.80;;
10643;SDS011;5370;50.132;8.626;2022-12-20T17:17:51;53.97;;;36.07;;